Latest Weather Observations for Toowoomba

IDQ60801

Issued at 11:01 am EST Monday 30 May 2016 (issued every 30 minutes, with the page automatically refreshed every 10 minutes)

About weather observations | Map of weather stations | Latest weather observations for QLD | Other Formats
Station Details ID: 041529 Name: TOOWOOMBA AIRPORT Lat: -27.54 Lon: 151.91 Height: 640.9 m
Data from the previous 72 hours. | See also: Recent months at Toowoomba
Date/Time
EST
Temp
°C
App
Temp
°C
Dew
Point
Rel
Hum
%
Delta-T
°C
Wind Press
QNH
hPa
Press
MSL
hPa
Rain
since 9 am
mm
Dir
 
Spd
km/h
Gust
km/h
Spd
kts
Gust
kts
30/11:00am 15.7 12.0 2.2 40 6.2 ENE 11 17 6 9 1025.4 1024.0 0.0
30/10:30am 15.4 12.0 1.9 40 6.1 ENE 9 13 5 7 1025.7 1024.4 0.0
30/10:00am 14.6 11.9 2.5 44 5.5 E 6 11 3 6 1025.9 1024.6 0.0
30/09:30am 13.9 11.0 2.5 46 5.2 ENE 7 11 4 6 1025.8 1024.5 0.0
30/09:00am 13.0 9.8 3.1 51 4.5 E 9 13 5 7 1025.5 1024.1 0.0
30/08:30am 11.1 8.1 4.1 62 3.2 S 9 11 5 6 1025.1 1023.8 0.0
30/08:00am 9.4 6.3 3.8 68 2.5 SSW 9 11 5 6 1025.0 1023.7 0.0
30/07:30am 7.9 5.2 2.8 70 2.2 S 6 9 3 5 1024.8 1023.5 0.0
30/07:00am 7.0 4.1 2.5 73 1.9 SSE 7 9 4 5 1024.3 1023.0 0.0
30/06:30am 6.0 4.5 3.0 81 1.3 CALM 0 0 0 0 1023.9 1022.5 0.0
30/06:00am 6.1 2.9 3.1 81 1.3 E 9 9 5 5 1023.4 1022.1 0.0
30/05:30am 5.3 3.0 2.8 84 1.1 SSE 4 9 2 5 1023.1 1021.8 0.0
30/05:00am 4.6 3.0 2.6 87 0.8 CALM 0 0 0 0 1023.1 1021.8 0.0
30/04:30am 5.8 4.3 3.0 82 1.2 CALM 0 6 0 3 1022.8 1021.5 0.0
30/04:00am 6.1 3.3 3.1 81 1.3 SSW 7 9 4 5 1022.4 1021.0 0.0
30/03:30am 6.2 3.0 3.2 81 1.3 SSW 9 13 5 7 1022.4 1021.0 0.0
30/03:00am 5.4 1.8 2.8 83 1.1 SW 11 13 6 7 1022.4 1021.0 0.0
30/02:30am 6.1 2.9 3.1 81 1.3 SW 9 11 5 6 1022.5 1021.1 0.0
30/02:00am 6.4 3.8 3.2 80 1.4 WSW 6 7 3 4 1022.6 1021.2 0.0
30/01:30am 6.4 3.8 3.4 81 1.3 SW 6 7 3 4 1022.5 1021.1 0.0
30/01:00am 6.5 2.8 2.6 76 1.7 SW 11 15 6 8 1022.4 1021.0 0.0
30/12:30am 7.3 3.7 3.0 74 1.9 SSW 11 15 6 8 1022.5 1021.1 0.0
30/12:00am 8.1 4.6 3.4 72 2.1 SSW 11 17 6 9 1022.6 1021.2 0.0
 
Date/Time
EST
Temp
°C
App
Temp
°C
Dew
Point
Rel
Hum
%
Delta-T
°C
Wind Press
QNH
hPa
Press
MSL
hPa
Rain
since 9 am
mm
Dir
 
Spd
km/h
Gust
km/h
Spd
kts
Gust
kts
29/11:30pm 7.9 4.0 3.6 74 1.9 SSW 13 19 7 10 1022.9 1021.6 0.0
29/11:00pm 7.3 3.8 3.4 76 1.7 SSW 11 13 6 7 1023.1 1021.8 0.0
29/10:30pm 7.5 4.7 3.2 74 1.9 SW 7 9 4 5 1023.1 1021.8 0.0
29/10:00pm 7.8 5.0 3.3 73 2.0 S 7 11 4 6 1023.2 1021.9 0.0
29/09:30pm 7.9 5.3 3.4 73 2.0 SW 6 7 3 4 1023.3 1022.0 0.0
29/09:00pm 8.5 4.6 3.4 70 2.3 SW 13 19 7 10 1023.0 1021.7 0.0
29/08:30pm 8.6 4.3 3.2 69 2.4 SW 15 19 8 10 1022.8 1021.5 0.0
29/08:00pm 9.2 4.5 3.4 67 2.6 WSW 17 19 9 10 1022.7 1021.3 0.0
29/07:30pm 9.2 4.9 3.0 65 2.8 WSW 15 19 8 10 1022.5 1021.1 0.0
29/07:00pm 10.5 5.8 3.1 60 3.3 WSW 17 20 9 11 1022.1 1020.7 0.0
29/06:30pm 10.6 6.2 2.7 58 3.5 WSW 15 17 8 9 1021.6 1020.3 0.0
29/06:00pm 11.1 7.0 2.4 55 3.9 WSW 13 19 7 10 1021.1 1019.7 0.0
29/05:30pm 12.0 7.9 2.5 52 4.3 WSW 13 17 7 9 1020.7 1019.3 0.0
29/05:00pm 13.5 8.6 2.1 46 5.1 WSW 17 22 9 12 1020.5 1019.1 0.0
29/04:30pm 14.7 9.8 2.3 43 5.7 WSW 17 24 9 13 1020.1 1018.8 0.0
29/04:00pm 15.2 9.7 2.1 41 6.0 WSW 20 28 11 15 1019.7 1018.3 0.0
29/03:30pm 15.7 9.4 1.4 38 6.5 WSW 24 32 13 17 1019.6 1018.2 0.0
29/03:00pm 15.9 10.2 2.7 41 6.2 WSW 22 30 12 16 1019.5 1018.1 0.0
29/02:30pm 16.0 10.2 2.1 39 6.4 WSW 22 32 12 17 1019.4 1018.0 0.0
29/02:00pm 15.9 9.7 2.0 39 6.4 WSW 24 35 13 19 1019.3 1017.9 0.0
29/01:30pm 15.8 10.1 2.6 41 6.2 WSW 22 32 12 17 1019.2 1017.8 0.0
29/01:00pm 15.0 8.9 2.9 44 5.6 WSW 24 32 13 17 1019.3 1017.9 0.0
29/12:30pm 14.0 7.8 2.3 45 5.3 WSW 24 32 13 17 1019.8 1018.4 0.0
29/12:00pm 13.3 7.6 3.1 50 4.7 WSW 22 30 12 16 1020.0 1018.6 0.0
29/11:30am 13.7 8.1 3.5 50 4.8 W 22 28 12 15 1020.6 1019.2 0.0
29/11:00am 13.3 8.1 3.4 51 4.6 WSW 20 28 11 15 1020.9 1019.5 0.0
29/10:30am 11.8 5.8 3.3 56 3.9 SW 24 33 13 18 1021.0 1019.6 0.0
29/10:00am 11.8 6.7 4.3 60 3.5 SW 20 26 11 14 1021.0 1019.6 0.0
29/09:30am 9.8 3.8 3.3 64 2.9 SSW 24 32 13 17 1020.8 1019.4 0.0
29/09:00am 9.4 2.7 3.4 66 2.7 SW 28 37 15 20 1021.3 1019.9 0.0
29/08:30am 8.5 2.2 3.6 71 2.2 SW 26 35 14 19 1021.1 1019.7 0.0
29/08:00am 7.3 1.7 3.5 77 1.7 SW 22 28 12 15 1020.6 1019.2 0.0
29/07:30am 7.1 0.7 3.2 76 1.7 SW 26 32 14 17 1020.3 1018.9 0.0
29/07:00am 6.4 0.4 3.4 81 1.3 SW 24 33 13 18 1019.7 1018.3 0.0
29/06:30am 5.1 0.0 3.1 87 0.9 SW 19 24 10 13 1019.5 1018.1 0.0
29/06:00am 4.4 -0.1 2.4 87 0.8 WSW 15 19 8 10 1019.6 1018.2 0.0
29/05:30am 4.6 0.5 2.5 86 0.9 WSW 13 17 7 9 1019.4 1018.0 0.0
29/05:00am 4.9 0.5 2.6 85 1.0 WSW 15 19 8 10 1019.2 1017.8 0.0
29/04:30am 5.3 0.9 2.7 83 1.1 WSW 15 19 8 10 1019.1 1017.7 0.0
29/04:00am 5.8 1.3 2.4 79 1.4 WSW 15 19 8 10 1019.0 1017.6 0.0
29/03:30am 6.3 1.5 2.8 78 1.5 WSW 17 22 9 12 1018.9 1017.5 0.0
29/03:00am 6.8 1.4 2.7 75 1.8 WSW 20 28 11 15 1018.3 1016.9 0.0
29/02:30am 6.8 1.4 2.5 74 1.8 WSW 20 28 11 15 1018.3 1016.9 0.0
29/02:00am 7.4 1.3 2.7 72 2.0 WSW 24 32 13 17 1018.2 1016.8 0.0
29/01:30am 7.6 1.1 2.7 71 2.1 WSW 26 33 14 18 1018.3 1016.9 0.0
29/01:00am 7.8 1.7 2.9 71 2.1 WSW 24 32 13 17 1018.3 1016.9 0.0
29/12:30am 8.2 2.8 2.4 67 2.5 WSW 20 28 11 15 1018.2 1016.8 0.0
29/12:00am 8.6 1.6 2.0 63 2.8 WSW 28 37 15 20 1017.7 1016.3 0.0
 
Date/Time
EST
Temp
°C
App
Temp
°C
Dew
Point
Rel
Hum
%
Delta-T
°C
Wind Press
QNH
hPa
Press
MSL
hPa
Rain
since 9 am
mm
Dir
 
Spd
km/h
Gust
km/h
Spd
kts
Gust
kts
28/11:30pm 8.9 3.0 1.8 61 3.1 WSW 22 35 12 19 1018.1 1016.7 0.0
28/11:00pm 8.6 3.0 1.5 61 3.0 WSW 20 26 11 14 1018.2 1016.8 0.0
28/10:30pm 9.0 3.4 1.4 59 3.3 WSW 20 30 11 16 1018.3 1016.9 0.0
28/10:00pm 9.8 3.4 1.2 55 3.7 WSW 24 33 13 18 1018.3 1016.9 0.0
28/09:30pm 10.4 3.6 1.0 52 4.0 WSW 26 35 14 19 1017.9 1016.5 0.0
28/09:00pm 10.9 3.7 0.9 50 4.3 WSW 28 37 15 20 1017.9 1016.5 0.0
28/08:30pm 11.4 4.3 1.1 49 4.5 W 28 37 15 20 1017.8 1016.4 0.0
28/08:00pm 11.7 4.2 1.1 48 4.6 W 30 37 16 20 1017.5 1016.1 0.0
28/07:30pm 12.0 4.9 1.3 48 4.7 W 28 37 15 20 1017.2 1015.7 0.0
28/07:00pm 12.0 5.3 1.6 49 4.6 W 26 35 14 19 1016.9 1015.4 0.0
28/06:30pm 12.5 5.5 1.8 48 4.8 W 28 39 15 21 1016.5 1015.1 0.0
28/06:00pm 12.7 6.1 2.3 49 4.7 W 26 35 14 19 1016.1 1014.7 0.0
28/05:30pm 13.3 6.7 1.9 46 5.1 W 26 35 14 19 1015.6 1014.1 0.0
28/05:00pm 14.1 6.3 2.0 44 5.5 W 32 41 17 22 1015.1 1013.7 0.0
28/04:30pm 14.9 6.5 1.8 41 6.0 W 35 48 19 26 1014.9 1013.5 0.0
28/04:00pm 15.6 7.3 2.4 41 6.1 W 35 56 19 30 1014.5 1013.0 0.0
28/03:39pm 15.6 7.3 2.4 41 6.1 W 35 59 19 32 1014.0 1012.5 0.0
28/03:30pm 16.5 8.9 2.9 40 6.4 W 32 46 17 25 1013.9 1012.4 0.0
28/03:00pm 15.9 7.0 3.0 42 6.1 W 39 54 21 29 1013.7 1012.2 0.0
28/02:30pm 16.6 8.2 3.7 42 6.2 W 37 54 20 29 1013.4 1012.0 0.0
28/02:11pm 16.0 7.5 3.4 43 6.0 W 37 56 20 30 1013.7 1012.2 0.0
28/02:00pm 15.6 7.2 3.7 45 5.7 W 37 50 20 27 1013.6 1012.1 0.0
28/01:41pm 14.9 7.3 3.7 47 5.3 W 33 52 18 28 1013.6 1012.1 0.0
28/01:30pm 15.8 6.6 3.6 44 5.8 W 41 56 22 30 1013.7 1012.2 0.0
28/01:15pm 16.1 8.4 3.2 42 6.1 W 33 57 18 31 1013.7 1012.2 0.0
28/01:00pm 15.3 7.7 4.1 47 5.4 W 33 48 18 26 1013.8 1012.3 0.0
28/12:30pm 14.7 6.6 3.5 47 5.3 W 35 50 19 27 1014.1 1012.6 0.0
28/12:00pm 14.6 6.3 4.3 50 4.9 W 37 50 20 27 1014.3 1012.8 0.0
28/11:30am 15.8 8.4 5.1 49 5.3 W 33 48 18 26 1014.7 1013.3 0.0
28/11:04am 15.3 8.1 5.0 50 5.0 W 32 50 17 27 1014.8 1013.4 0.0
28/11:00am 15.2 7.4 5.1 51 4.9 WSW 35 50 19 27 1014.9 1013.5 0.0
28/10:50am 14.8 7.5 4.5 50 5.0 W 32 50 17 27 1015.0 1013.6 0.0
28/10:30am 14.2 7.4 5.3 55 4.3 W 30 41 16 22 1015.6 1014.1 0.0
28/10:00am 13.2 6.9 5.6 60 3.7 W 28 39 15 21 1015.8 1014.3 0.0
28/09:30am 12.0 6.6 6.3 68 2.8 W 24 33 13 18 1016.1 1014.7 0.0
28/09:00am 9.7 4.5 5.5 75 2.0 WNW 22 28 12 15 1015.8 1014.3 0.0
28/08:30am 8.9 4.3 5.6 80 1.6 WNW 19 24 10 13 1015.6 1014.1 0.0
28/08:00am 7.5 3.2 5.1 85 1.1 WNW 17 20 9 11 1015.6 1014.1 0.0
28/07:30am 6.2 1.8 5.0 92 0.5 W 17 22 9 12 1015.1 1013.7 0.0
28/07:00am 5.1 1.1 4.7 97 0.2 W 15 19 8 10 1014.8 1013.4 0.0
28/06:30am 4.5 0.4 4.1 97 0.2 W 15 19 8 10 1014.5 1013.0 0.0
28/06:00am 4.8 0.3 4.4 97 0.2 W 17 22 9 12 1014.1 1012.6 0.0
28/05:30am 5.1 0.2 4.2 94 0.4 W 19 24 10 13 1014.3 1012.8 0.0
28/05:00am 5.7 1.2 4.0 89 0.8 W 17 22 9 12 1014.1 1012.6 0.0
28/04:30am 7.2 2.1 4.2 81 1.3 WSW 20 26 11 14 1013.9 1012.4 0.0
28/04:00am 7.4 1.9 4.2 80 1.4 WSW 22 28 12 15 1013.8 1012.3 0.0
28/03:30am 7.5 2.4 4.3 80 1.4 WSW 20 30 11 16 1014.3 1012.8 0.0
28/03:00am 8.0 3.0 4.6 79 1.6 WSW 20 30 11 16 1014.2 1012.7 0.0
28/02:30am 7.7 2.9 4.5 80 1.5 WSW 19 24 10 13 1014.0 1012.5 0.0
28/02:00am 8.2 3.4 4.8 79 1.6 WSW 19 24 10 13 1014.3 1012.8 0.0
28/01:30am 8.7 3.8 4.9 77 1.8 WSW 20 24 11 13 1014.4 1012.9 0.0
28/01:00am 8.6 3.8 4.8 77 1.8 WSW 19 24 10 13 1014.6 1013.1 0.0
28/12:30am 8.6 3.8 4.6 76 1.8 WSW 19 26 10 14 1014.5 1013.0 0.0
28/12:00am 9.1 4.1 4.7 74 2.0 SW 20 26 11 14 1014.5 1013.0 0.0
 
Date/Time
EST
Temp
°C
App
Temp
°C
Dew
Point
Rel
Hum
%
Delta-T
°C
Wind Press
QNH
hPa
Press
MSL
hPa
Rain
since 9 am
mm
Dir
 
Spd
km/h
Gust
km/h
Spd
kts
Gust
kts
27/11:30pm 9.2 4.4 4.8 74 2.0 SW 19 24 10 13 1014.7 1013.3 0.0
27/11:00pm 9.4 4.6 4.8 73 2.1 SW 19 24 10 13 1014.7 1013.3 0.0
27/10:30pm 9.8 5.1 5.0 72 2.2 WSW 19 24 10 13 1014.5 1013.0 0.0
27/10:00pm 10.0 5.1 5.2 72 2.3 WSW 20 28 11 15 1014.6 1013.1 0.0
27/09:30pm 10.6 5.0 5.6 71 2.4 SW 24 33 13 18 1014.5 1013.0 0.0
27/09:00pm 11.2 5.7 6.1 71 2.5 WSW 24 35 13 19 1014.3 1012.8 0.0
27/08:30pm 11.7 5.6 6.4 70 2.6 WSW 28 39 15 21 1014.4 1012.9 0.0
27/08:00pm 12.5 6.5 7.2 70 2.7 WSW 28 37 15 20 1014.1 1012.6 0.0
27/07:30pm 12.5 7.4 7.8 73 2.4 WSW 24 35 13 19 1014.1 1012.6 0.0
27/07:00pm 12.6 7.5 7.7 72 2.5 WSW 24 32 13 17 1013.9 1012.4 0.0
27/06:30pm 12.8 7.7 7.7 71 2.6 WSW 24 33 13 18 1013.1 1011.6 0.0
27/06:00pm 13.3 8.3 8.0 70 2.7 WSW 24 35 13 19 1012.8 1011.3 0.0
27/05:30pm 14.1 9.3 8.7 70 2.8 WSW 24 30 13 16 1012.5 1011.0 0.0
27/05:00pm 14.9 9.6 8.6 66 3.3 WSW 26 39 14 21 1012.1 1010.6 0.0
27/04:30pm 15.5 10.4 9.2 66 3.4 WSW 26 35 14 19 1011.7 1010.2 0.0
27/04:00pm 16.5 11.2 9.9 65 3.6 WSW 28 41 15 22 1011.3 1009.8 0.0
27/03:30pm 18.1 13.0 10.5 61 4.2 WSW 28 39 15 21 1010.9 1009.4 0.0
27/03:00pm 18.8 12.5 9.6 55 5.0 W 33 46 18 25 1010.5 1008.9 0.0
27/02:30pm 17.5 12.2 9.7 60 4.2 W 28 37 15 20 1010.5 1008.9 0.0
27/02:00pm 17.8 11.7 9.9 60 4.3 W 32 43 17 23 1010.6 1009.1 0.0
27/01:48pm 18.9 12.8 9.9 56 4.9 WNW 32 50 17 27 1010.4 1008.8 0.0
27/01:30pm 18.0 12.5 10.4 61 4.2 W 30 43 16 23 1010.7 1009.2 0.0
27/01:23pm 18.5 13.0 10.6 60 4.4 W 30 48 16 26 1010.9 1009.4 0.0
27/01:00pm 18.0 11.9 10.6 62 4.1 W 33 46 18 25 1010.9 1009.4 0.0
27/12:30pm 17.8 12.8 11.1 65 3.7 W 28 37 15 20 1011.2 1009.7 0.0
27/12:00pm 16.1 10.2 10.6 70 3.0 W 32 43 17 23 1011.6 1010.1 0.0
27/11:30am 16.7 12.3 11.8 73 2.8 W 26 39 14 21 1012.0 1010.5 0.0
27/11:02am 15.6 11.1 11.4 76 2.3 W 26 37 14 20 1012.2 1010.7 0.0

Other Formats:

Comma delimited format used in spreadsheet applications
http://www.bom.gov.au/fwo/IDQ60801/IDQ60801.95551.axf

JavaScript Object Notation format (JSON) in row-major order
http://www.bom.gov.au/fwo/IDQ60801/IDQ60801.95551.json